Taipei Songshan Airport
RCSS : now visible

Airfield :











YOU CAN JOIN US ON...

 
LOGIN :

Register | Disclaimer

   EN    FR    IT 

 









Legend :    VFR   Marginal VFR   IFR   Intensive IFR   Very Intensive IFR
Visi :
Ceiling :
>= 8 km
>= 3000ft
5 to 8 km
1000 to 3000 ft
1500m to 5 km
500 to 1000 ft
800 to 1500m
200 to 500 ft
< 800m
< 200 ft
Symbols :   Thunderstorms  Fog  Heavy snow  Heavy precipitations  Wind > 20 kt






- Airport Elevation : 18 ft
- IATA code : TSA


RCSS - Taipei Songshan

CURRENT METAR :
  • 211330Z 21004KT 150V260 2400 -RA SCT003 BKN010 BKN025 21/20 Q1017 NOSIG RMK A3004

EXPIRED METARs :
  • 211326Z 21005KT 150V260 2500 -RA SCT003 BKN010 BKN025 21/20 Q1017 NOSIG RMK A3004
  • 211317Z 21004KT 170V230 3000 -RA SCT003 BKN010 BKN025 21/20 Q1017 NOSIG RMK A3004
  • 211251Z 23004KT 190V270 2200 -RA SCT004 BKN010 BKN025 21/20 Q1017 NOSIG RMK A3004
  • 211217Z 26004KT 230V300 3000 -RA SCT003 BKN010 BKN025 21/20 Q1017 NOSIG RMK A3004
  • 211200Z VRB02KT 2500 -RA SCT003 BKN006 BKN020 21/20 Q1017 NOSIG RMK A3005 RA AMT 1.2MM
  • 211156Z VRB02KT 2500 -RA SCT003 BKN006 BKN020 21/20 Q1017 NOSIG RMK A3005
  • 211130Z 20003KT 160V230 7000 -RA SCT006 BKN012 BKN030 21/20 Q1017 NOSIG RMK A3004
  • 211108Z VRB02KT 7000 -RA SCT006 BKN012 BKN030 21/20 Q1016 NOSIG RMK A3003

TAF AMD TAF RCSS
Valid from the 21 at 12:00 until the 22 at 12:00 UTC


211212Z 2112/2212 14005KT 8000 FEW012 BKN022
TEMPO 2112/2115 09010KT 2500 RA SCT003 BKN007 BKN020
TEMPO 2115/2121 4000 RA FEW006 BKN012 BKN030
TEMPO 2121/2202 08010KT 5000 RA FEW008 BKN014 BKN035
BECMG 2202/2204 09005KT
TEMPO 2206/2212 FEW006 BKN014 BKN030



MET'MAP, your aeronautical weather chart ! - Copyright ORBIFLY December 2007 - Disclaimer

ORBIFLY MET'MAP TEAM :

Programming & Development : Alexandra Zaïnal
Concept & Development : Baudouin d'Aumeries
Co-Development & Prog : Marc-Olivier Méhu
Technical & hardware support : Manuel Goepfert

Contact : metmap@orbifly.com




SOURCES & CREDITS :

   NOAA       Earth
Advisory